sensor_id;sensor_type;location;lat;lon;timestamp;pressure;altitude;pressure_sealevel;temperature;humidity
47763;BME280;33526;42.690;23.322;2023-06-22T21:09:50;95369.63;;;21.09;100.00
47763;BME280;33526;42.690;23.322;2023-06-22T21:24:37;95488.97;;;21.69;100.00
47763;BME280;33526;42.690;23.322;2023-06-22T21:42:36;95322.50;;;20.34;100.00
47763;BME280;33526;42.690;23.322;2023-06-22T21:58:53;95461.19;;;21.26;99.29
47763;BME280;33526;42.690;23.322;2023-06-22T22:02:23;95457.94;;;21.16;97.99
47763;BME280;33526;42.690;23.322;2023-06-22T22:05:32;95316.41;;;20.18;97.82
47763;BME280;33526;42.690;23.322;2023-06-22T22:08:08;95466.22;;;21.14;95.60
47763;BME280;33526;42.690;23.322;2023-06-22T22:10:53;95364.94;;;20.51;97.05
47763;BME280;33526;42.690;23.322;2023-06-22T22:16:03;95397.84;;;20.76;95.30
47763;BME280;33526;42.690;23.322;2023-06-22T22:19:16;95376.50;;;20.58;94.76
47763;BME280;33526;42.690;23.322;2023-06-22T22:22:09;95372.47;;;20.48;94.92
47763;BME280;33526;42.690;23.322;2023-06-22T22:24:58;95340.41;;;20.17;97.04
47763;BME280;33526;42.690;23.322;2023-06-22T22:30:10;95332.47;;;20.10;98.07
47763;BME280;33526;42.690;23.322;2023-06-22T22:36:07;95313.50;;;19.94;99.93
47763;BME280;33526;42.690;23.322;2023-06-22T22:38:40;95307.09;;;19.82;100.00
47763;BME280;33526;42.690;23.322;2023-06-22T22:41:32;95446.59;;;20.80;100.00
47763;BME280;33526;42.690;23.322;2023-06-22T22:44:02;95447.41;;;20.75;100.00
47763;BME280;33526;42.690;23.322;2023-06-22T22:46:28;95387.06;;;20.28;100.00
47763;BME280;33526;42.690;23.322;2023-06-22T22:49:13;95463.97;;;20.71;100.00
47763;BME280;33526;42.690;23.322;2023-06-22T22:54:25;95393.94;;;20.38;100.00
47763;BME280;33526;42.690;23.322;2023-06-22T22:57:24;95323.09;;;19.85;100.00
47763;BME280;33526;42.690;23.322;2023-06-22T23:00:04;95405.53;;;20.40;100.00
47763;BME280;33526;42.690;23.322;2023-06-22T23:02:55;95294.81;;;19.74;100.00
47763;BME280;33526;42.690;23.322;2023-06-22T23:05:56;95440.78;;;20.67;100.00
47763;BME280;33526;42.690;23.322;2023-06-22T23:08:45;95438.69;;;20.68;100.00
47763;BME280;33526;42.690;23.322;2023-06-22T23:11:26;95368.91;;;20.00;100.00
47763;BME280;33526;42.690;23.322;2023-06-22T23:16:37;95344.72;;;19.94;100.00
47763;BME280;33526;42.690;23.322;2023-06-22T23:19:09;95323.16;;;19.74;100.00
47763;BME280;33526;42.690;23.322;2023-06-22T23:22:06;95323.16;;;19.62;100.00
47763;BME280;33526;42.690;23.322;2023-06-22T23:25:08;95315.34;;;19.27;100.00
47763;BME280;33526;42.690;23.322;2023-06-22T23:27:56;95438.03;;;20.03;100.00
47763;BME280;33526;42.690;23.322;2023-06-22T23:30:24;95380.75;;;19.40;100.00
47763;BME280;33526;42.690;23.322;2023-06-22T23:32:56;95335.53;;;18.95;100.00
47763;BME280;33526;42.690;23.322;2023-06-22T23:35:24;95433.53;;;19.60;100.00
47763;BME280;33526;42.690;23.322;2023-06-22T23:38:14;95351.97;;;19.14;100.00
47763;BME280;33526;42.690;23.322;2023-06-22T23:40:53;95436.06;;;19.75;100.00
47763;BME280;33526;42.690;23.322;2023-06-22T23:43:34;95355.53;;;19.31;100.00
47763;BME280;33526;42.690;23.322;2023-06-22T23:46:28;95386.38;;;19.52;100.00
47763;BME280;33526;42.690;23.322;2023-06-22T23:49:28;95357.34;;;19.34;100.00
47763;BME280;33526;42.690;23.322;2023-06-22T23:52:02;95429.06;;;19.88;100.00
